createdAt,value
2016-08-28T16:54:43.607Z,100452
2016-08-28T16:55:04.901Z,100448
2016-08-28T16:55:16.113Z,100433
2016-08-28T16:55:33.060Z,100448
2016-08-28T16:55:44.276Z,100436
2016-08-28T16:55:56.595Z,100442
2016-08-28T16:56:09.579Z,100430
2016-08-28T16:56:24.062Z,100439
2016-08-28T16:56:41.747Z,100433
2016-08-28T16:56:53.294Z,100433
2016-08-28T16:57:08.189Z,100439
2016-08-28T16:57:26.822Z,100436
2016-08-28T16:57:38.484Z,100436
2016-08-28T16:57:49.788Z,100436
2016-08-28T16:58:03.785Z,100430
2016-08-28T16:58:20.682Z,100426
2016-08-28T16:58:31.933Z,100433
2016-08-28T16:58:48.854Z,100436
2016-08-28T16:59:00.042Z,100423
2016-08-28T16:59:11.299Z,100430
2016-08-28T16:59:22.398Z,100430
2016-08-28T16:59:33.564Z,100430
2016-08-28T16:59:44.844Z,100426
2016-08-28T17:00:01.771Z,100436
2016-08-28T17:00:12.981Z,100423
2016-08-28T17:00:24.200Z,100420
2016-08-28T17:00:38.252Z,100423
2016-08-28T17:00:50.821Z,100430
2016-08-28T17:01:07.902Z,100436
2016-08-28T17:01:19.099Z,100423
2016-08-28T17:01:33.194Z,100426
2016-08-28T17:01:50.109Z,100429
2016-08-28T17:02:01.276Z,100426
2016-08-28T17:02:12.519Z,100423
2016-08-28T17:02:26.529Z,100426
2016-08-28T17:02:37.695Z,100423
2016-08-28T17:02:51.801Z,100426
2016-08-28T17:03:02.990Z,100417
2016-08-28T17:03:20.853Z,100423
2016-08-28T17:03:32.068Z,100420
2016-08-28T17:03:43.287Z,100420
2016-08-28T17:03:54.343Z,100433
2016-08-28T17:04:08.332Z,100420
2016-08-28T17:04:22.429Z,100433
2016-08-28T17:04:33.672Z,100426
2016-08-28T17:04:44.855Z,100420
2016-08-28T17:04:56.095Z,100420
2016-08-28T17:05:12.937Z,100423
2016-08-28T17:05:29.948Z,100414
2016-08-28T17:05:41.059Z,100414
2016-08-28T17:05:52.244Z,100423
2016-08-28T17:06:06.304Z,100423
2016-08-28T17:06:20.405Z,100420
2016-08-28T17:06:31.612Z,100420
2016-08-28T17:06:45.718Z,100417
2016-08-28T17:06:59.858Z,100423
2016-08-28T17:07:10.995Z,100417
2016-08-28T17:07:24.985Z,100417
2016-08-28T17:07:36.120Z,100414
2016-08-28T17:07:50.260Z,100410
2016-08-28T17:08:07.107Z,100417
2016-08-28T17:08:21.002Z,100407
2016-08-28T17:08:32.212Z,100423
2016-08-28T17:08:46.166Z,100414
2016-08-28T17:08:57.386Z,100410
2016-08-28T17:09:14.282Z,100426
2016-08-28T17:09:31.102Z,100420
2016-08-28T17:09:42.150Z,100417
2016-08-28T17:09:53.368Z,100417
2016-08-28T17:10:04.536Z,100423
2016-08-28T17:10:18.604Z,100420
2016-08-28T17:10:29.811Z,100414
2016-08-28T17:10:43.968Z,100417
2016-08-28T17:10:57.936Z,100407
2016-08-28T17:11:12.003Z,100420
2016-08-28T17:11:23.250Z,100420
2016-08-28T17:11:37.291Z,100423
2016-08-28T17:11:48.391Z,100417
2016-08-28T17:11:59.617Z,100407
2016-08-28T17:12:13.509Z,100420
2016-08-28T17:12:27.592Z,100420
2016-08-28T17:12:41.683Z,100417
2016-08-28T17:12:52.824Z,100401
2016-08-28T17:13:04.024Z,100407
2016-08-28T17:13:15.199Z,100398
2016-08-28T17:13:26.321Z,100414
2016-08-28T17:13:40.407Z,100395
2016-08-28T17:13:51.511Z,100410
2016-08-28T17:14:02.507Z,100401
2016-08-28T17:14:16.651Z,100395
2016-08-28T17:14:33.658Z,100407
2016-08-28T17:14:44.746Z,100401
2016-08-28T17:14:58.871Z,100392
2016-08-28T17:15:10.085Z,100401
2016-08-28T17:15:24.100Z,100401
2016-08-28T17:15:35.292Z,100401
2016-08-28T17:15:46.450Z,100401
2016-08-28T17:15:57.699Z,100401
2016-08-28T17:16:08.855Z,100401
2016-08-28T17:16:22.930Z,100407
2016-08-28T17:16:33.999Z,100407
2016-08-28T17:16:45.267Z,100401
2016-08-28T17:17:02.203Z,100404
2016-08-28T17:17:16.229Z,100404
2016-08-28T17:17:27.498Z,100392
2016-08-28T17:17:38.591Z,100398
2016-08-28T17:17:49.732Z,100404
2016-08-28T17:18:03.816Z,100392
2016-08-28T17:18:17.846Z,100404
2016-08-28T17:18:28.994Z,100395
2016-08-28T17:18:40.123Z,100404
2016-08-28T17:18:51.377Z,100388
2016-08-28T17:19:05.461Z,100395
2016-08-28T17:19:16.737Z,100407
2016-08-28T17:19:27.921Z,100398
2016-08-28T17:19:39.125Z,100401
2016-08-28T17:19:53.184Z,100407
2016-08-28T17:20:07.168Z,100395
2016-08-28T17:20:18.482Z,100401
2016-08-28T17:20:35.512Z,100391
2016-08-28T17:20:49.527Z,100391
2016-08-28T17:21:00.705Z,100391
2016-08-28T17:21:11.905Z,100401
2016-08-28T17:21:25.943Z,100410
2016-08-28T17:21:37.109Z,100398
2016-08-28T17:21:48.354Z,100398
2016-08-28T17:22:05.287Z,100395
2016-08-28T17:22:16.475Z,100391
2016-08-28T17:22:30.549Z,100395
2016-08-28T17:22:44.474Z,100395
2016-08-28T17:22:55.524Z,100388
2016-08-28T17:23:09.656Z,100395
2016-08-28T17:23:23.665Z,100395
2016-08-28T17:23:37.768Z,100395
2016-08-28T17:23:48.917Z,100385
2016-08-28T17:24:00.106Z,100391
2016-08-28T17:24:14.185Z,100395
2016-08-28T17:24:25.283Z,100395
2016-08-28T17:24:39.373Z,100388
2016-08-28T17:24:50.619Z,100379
2016-08-28T17:25:04.725Z,100391
2016-08-28T17:25:18.810Z,100388
2016-08-28T17:25:32.894Z,100385
2016-08-28T17:25:51.155Z,100401
2016-08-28T17:26:02.322Z,100388
2016-08-28T17:26:19.290Z,100385
2016-08-28T17:26:33.399Z,100398
2016-08-28T17:26:50.435Z,100404
2016-08-28T17:27:01.622Z,100388
2016-08-28T17:27:21.503Z,100391
2016-08-28T17:27:32.748Z,100382
2016-08-28T17:27:46.825Z,100391
2016-08-28T17:28:03.753Z,100395
2016-08-28T17:28:17.773Z,100388
2016-08-28T17:28:28.936Z,100376
2016-08-28T17:28:42.921Z,100388
2016-08-28T17:28:54.095Z,100395
2016-08-28T17:29:05.279Z,100395
2016-08-28T17:29:16.392Z,100385
2016-08-28T17:29:27.509Z,100392
2016-08-28T17:29:41.543Z,100385
2016-08-28T17:30:01.348Z,100388
2016-08-28T17:30:12.495Z,100385
2016-08-28T17:30:26.396Z,100382
2016-08-28T17:30:37.664Z,100376
2016-08-28T17:30:52.482Z,100382
2016-08-28T17:31:06.572Z,100379
2016-08-28T17:31:20.652Z,100391
2016-08-28T17:31:31.831Z,100401
2016-08-28T17:31:42.974Z,100398
2016-08-28T17:31:56.939Z,100391
2016-08-28T17:32:11.080Z,100385
2016-08-28T17:32:27.956Z,100395
2016-08-28T17:32:42.053Z,100395
2016-08-28T17:32:55.978Z,100385
2016-08-28T17:33:07.293Z,100388
2016-08-28T17:33:19.197Z,100388
2016-08-28T17:33:34.450Z,100391
2016-08-28T17:33:48.734Z,100391
2016-08-28T17:33:59.891Z,100388
2016-08-28T17:34:16.825Z,100391
2016-08-28T17:34:35.919Z,100391
2016-08-28T17:34:47.441Z,100391
2016-08-28T17:35:02.190Z,100388
2016-08-28T17:35:19.037Z,100395
2016-08-28T17:35:33.057Z,100388
2016-08-28T17:35:47.283Z,100385
2016-08-28T17:36:01.272Z,100376
2016-08-28T17:36:18.347Z,100388
2016-08-28T17:36:30.073Z,100404
2016-08-28T17:36:44.184Z,100385
2016-08-28T17:36:58.207Z,100376
2016-08-28T17:37:12.995Z,100382
2016-08-28T17:37:27.292Z,100385
2016-08-28T17:37:42.066Z,100388
2016-08-28T17:37:59.738Z,100391
2016-08-28T17:38:13.805Z,100379
2016-08-28T17:38:27.832Z,100388
2016-08-28T17:38:39.026Z,100369
2016-08-28T17:38:50.565Z,100385
2016-08-28T17:39:04.793Z,100376
2016-08-28T17:39:18.945Z,100382
2016-08-28T17:39:30.072Z,100379
2016-08-28T17:39:43.971Z,100379
2016-08-28T17:39:55.216Z,100379
2016-08-28T17:40:09.290Z,100385
2016-08-28T17:40:23.369Z,100379
2016-08-28T17:40:34.536Z,100379
2016-08-28T17:40:45.754Z,100382
2016-08-28T17:41:02.704Z,100379
2016-08-28T17:41:13.914Z,100398
2016-08-28T17:41:25.022Z,100398
2016-08-28T17:41:36.240Z,100398
2016-08-28T17:41:47.376Z,100398
2016-08-28T17:41:58.520Z,100388
2016-08-28T17:42:12.624Z,100388
2016-08-28T17:42:23.848Z,100391
2016-08-28T17:42:34.875Z,100395
2016-08-28T17:42:48.850Z,100401
2016-08-28T17:43:00.054Z,100385
2016-08-28T17:43:17.061Z,100404
2016-08-28T17:43:31.101Z,100398
2016-08-28T17:43:42.283Z,100410
2016-08-28T17:43:56.397Z,100417
2016-08-28T17:44:10.317Z,100410
2016-08-28T17:44:21.511Z,100407
2016-08-28T17:44:35.627Z,100404
2016-08-28T17:44:46.707Z,100417
2016-08-28T17:45:00.865Z,100423
2016-08-28T17:45:12.019Z,100420
2016-08-28T17:45:23.147Z,100410
2016-08-28T17:45:34.360Z,100414
2016-08-28T17:45:48.452Z,100404
2016-08-28T17:46:02.414Z,100407
2016-08-28T17:46:13.541Z,100414
2016-08-28T17:46:30.397Z,100407
2016-08-28T17:46:44.507Z,100407
2016-08-28T17:47:01.463Z,100410
2016-08-28T17:47:15.387Z,100410
2016-08-28T17:47:26.426Z,100417
2016-08-28T17:47:37.667Z,100414
2016-08-28T17:47:51.689Z,100407
2016-08-28T17:48:02.778Z,100410
2016-08-28T17:48:14.018Z,100410
2016-08-28T17:48:25.159Z,100395
2016-08-28T17:48:39.195Z,100404
2016-08-28T17:48:50.508Z,100407
2016-08-28T17:49:04.441Z,100395
2016-08-28T17:49:15.597Z,100407
2016-08-28T17:49:29.574Z,100398
2016-08-28T17:49:40.729Z,100395
2016-08-28T17:49:54.912Z,100395
2016-08-28T17:50:06.105Z,100385
2016-08-28T17:50:22.943Z,100395
2016-08-28T17:50:37.034Z,100395
2016-08-28T17:50:50.998Z,100395
2016-08-28T17:51:02.130Z,100398
2016-08-28T17:51:16.190Z,100395
2016-08-28T17:51:33.109Z,100392
2016-08-28T17:51:47.069Z,100385
2016-08-28T17:51:58.310Z,100385
2016-08-28T17:52:09.211Z,100382
2016-08-28T17:52:20.434Z,100388
2016-08-28T17:52:34.380Z,100398
2016-08-28T17:52:45.310Z,100392
2016-08-28T17:53:02.268Z,100376
2016-08-28T17:53:13.304Z,100385
2016-08-28T17:53:24.383Z,100382
2016-08-28T17:53:38.431Z,100388
2016-08-28T17:53:52.572Z,100376
2016-08-28T17:54:03.632Z,100379
2016-08-28T17:54:17.779Z,100392
2016-08-28T17:54:31.865Z,100388
2016-08-28T17:54:42.928Z,100392
2016-08-28T17:54:54.047Z,100382
2016-08-28T17:55:10.927Z,100388
2016-08-28T17:55:27.869Z,100388
2016-08-28T17:55:38.979Z,100395
2016-08-28T17:55:53.025Z,100392
2016-08-28T17:56:04.121Z,100388
2016-08-28T17:56:18.259Z,100395
2016-08-28T17:56:29.301Z,100395
2016-08-28T17:56:43.399Z,100392
2016-08-28T17:56:54.615Z,100379
2016-08-28T17:57:08.732Z,100385
2016-08-28T17:57:22.784Z,100388
2016-08-28T17:57:36.872Z,100398
2016-08-28T17:57:48.089Z,100385
2016-08-28T17:57:59.228Z,100382
2016-08-28T17:58:10.312Z,100385
2016-08-28T17:58:21.483Z,100382
2016-08-28T17:58:35.554Z,100382
2016-08-28T17:58:46.665Z,100385
2016-08-28T17:59:00.719Z,100373
2016-08-28T17:59:11.954Z,100376
2016-08-28T17:59:23.172Z,100369
2016-08-28T17:59:37.227Z,100385
2016-08-28T17:59:54.028Z,100372
2016-08-28T18:00:05.218Z,100376
2016-08-28T18:00:19.283Z,100379
2016-08-28T18:00:33.343Z,100376
2016-08-28T18:00:47.997Z,100376
2016-08-28T18:01:02.193Z,100376
2016-08-28T18:01:13.419Z,100363
2016-08-28T18:01:24.492Z,100376
2016-08-28T18:01:35.740Z,100376
2016-08-28T18:01:49.881Z,100366
2016-08-28T18:02:00.922Z,100369
2016-08-28T18:02:14.988Z,100363
2016-08-28T18:02:26.120Z,100376
2016-08-28T18:02:40.100Z,100372
2016-08-28T18:02:51.340Z,100369
2016-08-28T18:03:02.446Z,100379
2016-08-28T18:03:18.155Z,100363
2016-08-28T18:03:37.990Z,100357
2016-08-28T18:03:52.019Z,100369
2016-08-28T18:04:06.133Z,100379
2016-08-28T18:04:23.033Z,100360
2016-08-28T18:04:34.188Z,100366
2016-08-28T18:04:48.288Z,100366
2016-08-28T18:05:02.506Z,100366
2016-08-28T18:05:13.593Z,100353
2016-08-28T18:05:27.605Z,100357
2016-08-28T18:05:41.722Z,100360
2016-08-28T18:05:52.844Z,100353
2016-08-28T18:06:03.885Z,100350
2016-08-28T18:06:15.107Z,100357
2016-08-28T18:06:26.397Z,100350
2016-08-28T18:06:40.465Z,100350
2016-08-28T18:06:57.373Z,100357
2016-08-28T18:07:14.236Z,100366
2016-08-28T18:07:25.197Z,100353
2016-08-28T18:07:39.134Z,100357
2016-08-28T18:07:58.966Z,100347
2016-08-28T18:08:12.911Z,100360
2016-08-28T18:08:27.047Z,100360
2016-08-28T18:08:41.126Z,100357
2016-08-28T18:08:52.279Z,100357
2016-08-28T18:09:03.300Z,100363
2016-08-28T18:09:14.408Z,100363
2016-08-28T18:09:25.700Z,100363
2016-08-28T18:09:36.926Z,100363
2016-08-28T18:09:53.834Z,100363
2016-08-28T18:10:07.918Z,100372
2016-08-28T18:10:19.221Z,100372
2016-08-28T18:10:33.244Z,100369
2016-08-28T18:10:44.423Z,100369
2016-08-28T18:10:55.573Z,100369
2016-08-28T18:11:06.570Z,100375
2016-08-28T18:11:23.532Z,100369
2016-08-28T18:11:34.685Z,100369
2016-08-28T18:11:45.880Z,100372
2016-08-28T18:11:57.112Z,100382
2016-08-28T18:12:08.188Z,100372
2016-08-28T18:12:19.425Z,100378
2016-08-28T18:12:36.453Z,100385
2016-08-28T18:12:50.524Z,100372
2016-08-28T18:13:04.672Z,100385
2016-08-28T18:13:18.820Z,100385
2016-08-28T18:13:32.843Z,100382
2016-08-28T18:13:49.741Z,100382
2016-08-28T18:14:03.867Z,100388
2016-08-28T18:14:15.070Z,100382
2016-08-28T18:14:26.305Z,100378
2016-08-28T18:14:40.359Z,100385
2016-08-28T18:14:54.419Z,100378
2016-08-28T18:15:08.485Z,100388
2016-08-28T18:15:22.554Z,100378
2016-08-28T18:15:36.543Z,100385
2016-08-28T18:15:50.661Z,100394
2016-08-28T18:16:01.761Z,100382
2016-08-28T18:16:15.649Z,100382
2016-08-28T18:16:29.685Z,100378
2016-08-28T18:16:40.824Z,100388
2016-08-28T18:16:54.937Z,100394
2016-08-28T18:17:08.967Z,100378
2016-08-28T18:17:23.223Z,100394
2016-08-28T18:17:37.321Z,100391
2016-08-28T18:17:48.410Z,100381
2016-08-28T18:18:02.263Z,100388
2016-08-28T18:18:19.212Z,100388
2016-08-28T18:18:30.416Z,100388
2016-08-28T18:18:44.479Z,100391
2016-08-28T18:18:58.505Z,100385
2016-08-28T18:19:12.609Z,100394
2016-08-28T18:19:32.258Z,100385
2016-08-28T18:19:49.088Z,100388
2016-08-28T18:20:00.236Z,100394
2016-08-28T18:20:14.332Z,100391
2016-08-28T18:20:28.359Z,100391
2016-08-28T18:20:39.535Z,100410
2016-08-28T18:20:56.523Z,100403
2016-08-28T18:21:07.694Z,100407
2016-08-28T18:21:21.711Z,100400
2016-08-28T18:21:35.780Z,100388
2016-08-28T18:21:46.964Z,100400
2016-08-28T18:22:00.975Z,100403
2016-08-28T18:22:14.948Z,100400
2016-08-28T18:22:26.071Z,100397
2016-08-28T18:22:37.142Z,100407
2016-08-28T18:22:51.047Z,100400
2016-08-28T18:23:02.209Z,100400
2016-08-28T18:23:16.305Z,100400
2016-08-28T18:23:27.524Z,100397
2016-08-28T18:23:41.516Z,100400
2016-08-28T18:23:52.718Z,100407
2016-08-28T18:24:06.830Z,100403
2016-08-28T18:24:20.870Z,100397
2016-08-28T18:24:34.944Z,100400
2016-08-28T18:24:46.168Z,100391
2016-08-28T18:24:57.256Z,100394
2016-08-28T18:25:11.180Z,100406
2016-08-28T18:25:25.267Z,100403
2016-08-28T18:25:42.296Z,100410
2016-08-28T18:25:53.405Z,100394
2016-08-28T18:26:04.627Z,100394
2016-08-28T18:26:15.740Z,100403
2016-08-28T18:26:29.806Z,100400
2016-08-28T18:26:43.865Z,100413
2016-08-28T18:26:57.884Z,100394
2016-08-28T18:27:11.956Z,100413
2016-08-28T18:27:23.140Z,100413
2016-08-28T18:27:34.219Z,100416
2016-08-28T18:27:45.451Z,100410
2016-08-28T18:27:59.502Z,100410
2016-08-28T18:28:16.258Z,100416
2016-08-28T18:28:27.423Z,100419
2016-08-28T18:28:38.645Z,100416
2016-08-28T18:28:49.850Z,100416
2016-08-28T18:29:03.821Z,100416
2016-08-28T18:29:14.995Z,100406
2016-08-28T18:29:31.891Z,100425
2016-08-28T18:29:42.955Z,100416
2016-08-28T18:29:57.103Z,100413
2016-08-28T18:30:11.126Z,100425
2016-08-28T18:30:25.156Z,100419
2016-08-28T18:30:39.197Z,100406
2016-08-28T18:30:56.829Z,100419
2016-08-28T18:31:10.868Z,100416
2016-08-28T18:31:24.930Z,100425
2016-08-28T18:31:38.955Z,100425
2016-08-28T18:31:53.128Z,100403
2016-08-28T18:32:10.185Z,100428
2016-08-28T18:32:24.008Z,100431
2016-08-28T18:32:35.285Z,100422
2016-08-28T18:32:49.324Z,100438
2016-08-28T18:33:06.223Z,100425
2016-08-28T18:33:20.319Z,100425
2016-08-28T18:33:34.505Z,100435
2016-08-28T18:33:51.421Z,100431
2016-08-28T18:34:05.379Z,100428
2016-08-28T18:34:19.536Z,100431
2016-08-28T18:34:30.576Z,100435
2016-08-28T18:34:41.667Z,100435
2016-08-28T18:34:58.620Z,100428
2016-08-28T18:35:15.580Z,100438
2016-08-28T18:35:26.853Z,100447
2016-08-28T18:35:37.860Z,100435
2016-08-28T18:35:51.955Z,100441
2016-08-28T18:36:06.030Z,100444
2016-08-28T18:36:20.079Z,100453
2016-08-28T18:36:34.049Z,100447
2016-08-28T18:36:48.111Z,100447
2016-08-28T18:36:59.217Z,100444
2016-08-28T18:37:16.057Z,100435
2016-08-28T18:37:30.228Z,100444
2016-08-28T18:37:44.165Z,100441
2016-08-28T18:37:58.245Z,100447
2016-08-28T18:38:15.148Z,100453
2016-08-28T18:38:26.269Z,100450
2016-08-28T18:38:40.249Z,100444
2016-08-28T18:38:51.308Z,100447
2016-08-28T18:39:08.133Z,100444
2016-08-28T18:39:19.258Z,100444
2016-08-28T18:39:30.399Z,100444
2016-08-28T18:39:44.442Z,100460
2016-08-28T18:39:58.526Z,100456
2016-08-28T18:40:12.600Z,100444
2016-08-28T18:40:26.593Z,100450
2016-08-28T18:40:37.805Z,100460
2016-08-28T18:40:48.960Z,100456
2016-08-28T18:41:02.973Z,100450
2016-08-28T18:41:14.087Z,100447
2016-08-28T18:41:25.224Z,100456
2016-08-28T18:41:36.388Z,100463
2016-08-28T18:41:56.152Z,100456
2016-08-28T18:42:10.167Z,100460
2016-08-28T18:42:27.126Z,100466
2016-08-28T18:42:41.190Z,100466
2016-08-28T18:42:52.310Z,100466
2016-08-28T18:43:03.473Z,100469
2016-08-28T18:43:14.630Z,100469
2016-08-28T18:43:28.710Z,100487
2016-08-28T18:43:39.863Z,100480
2016-08-28T18:43:50.990Z,100475
2016-08-28T18:44:05.019Z,100480
2016-08-28T18:44:21.912Z,100472
2016-08-28T18:44:33.041Z,100469
2016-08-28T18:44:44.141Z,100472
2016-08-28T18:45:01.134Z,100463
2016-08-28T18:45:12.166Z,100469
2016-08-28T18:45:26.169Z,100466
2016-08-28T18:45:37.454Z,100472
2016-08-28T18:45:48.616Z,100460
2016-08-28T18:46:00.971Z,100463
2016-08-28T18:46:13.781Z,100475
2016-08-28T18:46:27.954Z,100460
2016-08-28T18:46:45.201Z,100475
2016-08-28T18:46:56.346Z,100463
2016-08-28T18:47:13.322Z,100457
2016-08-28T18:47:26.117Z,100466
2016-08-28T18:47:40.074Z,100460
2016-08-28T18:47:57.189Z,100466
2016-08-28T18:48:08.417Z,100466
2016-08-28T18:48:19.891Z,100457
2016-08-28T18:48:36.647Z,100454
2016-08-28T18:48:47.890Z,100469
2016-08-28T18:49:00.092Z,100460
2016-08-28T18:49:14.447Z,100450
2016-08-28T18:49:29.961Z,100466
2016-08-28T18:49:41.111Z,100463
2016-08-28T18:49:52.822Z,100466
2016-08-28T18:50:12.654Z,100454
2016-08-28T18:50:23.838Z,100463
2016-08-28T18:50:35.153Z,100454
2016-08-28T18:50:46.357Z,100457
2016-08-28T18:50:57.477Z,100457
2016-08-28T18:51:11.516Z,100457
2016-08-28T18:51:25.498Z,100444
2016-08-28T18:51:42.532Z,100451
2016-08-28T18:51:56.515Z,100454
2016-08-28T18:52:10.619Z,100457
2016-08-28T18:52:21.654Z,100451
2016-08-28T18:52:33.214Z,100460
2016-08-28T18:52:49.037Z,100451
2016-08-28T18:53:03.969Z,100460
2016-08-28T18:53:15.183Z,100457
2016-08-28T18:53:26.389Z,100444
2016-08-28T18:53:43.343Z,100438
2016-08-28T18:53:57.647Z,100451
2016-08-28T18:54:14.753Z,100444
2016-08-28T18:54:25.974Z,100451
2016-08-28T18:54:40.447Z,100451
2016-08-28T18:54:54.512Z,100444
2016-08-28T18:55:11.566Z,100457
2016-08-28T18:55:28.577Z,100451
2016-08-28T18:55:39.923Z,100441
2016-08-28T18:55:51.059Z,100457
2016-08-28T18:56:02.444Z,100447
2016-08-28T18:56:13.711Z,100447
2016-08-28T18:56:33.469Z,100448
2016-08-28T18:56:48.003Z,100451
2016-08-28T18:57:02.150Z,100454
2016-08-28T18:57:13.146Z,100454
2016-08-28T18:57:36.513Z,100451
2016-08-28T18:57:47.643Z,100444
2016-08-28T18:58:04.602Z,100463
2016-08-28T18:58:16.269Z,100448
2016-08-28T18:58:27.307Z,100451
2016-08-28T18:58:41.707Z,100454
2016-08-28T18:58:52.996Z,100451
2016-08-28T18:59:07.031Z,100448
2016-08-28T18:59:20.974Z,100448
2016-08-28T18:59:37.979Z,100454
2016-08-28T18:59:49.130Z,100460
2016-08-28T19:00:03.113Z,100451
2016-08-28T19:00:17.164Z,100460
2016-08-28T19:00:36.346Z,100451
2016-08-28T19:00:51.702Z,100454
2016-08-28T19:01:17.096Z,100451
2016-08-28T19:01:38.579Z,100463
2016-08-28T19:01:52.775Z,100451
2016-08-28T19:02:09.941Z,100441
2016-08-28T19:02:24.262Z,100451
2016-08-28T19:02:35.537Z,100457
2016-08-28T19:02:46.692Z,100466
2016-08-28T19:03:01.082Z,100457
2016-08-28T19:03:16.147Z,100460
2016-08-28T19:03:27.409Z,100460
2016-08-28T19:03:38.952Z,100454
2016-08-28T19:03:53.088Z,100460
2016-08-28T19:04:07.745Z,100466
2016-08-28T19:04:19.265Z,100460
2016-08-28T19:04:39.372Z,100463
2016-08-28T19:04:59.674Z,100469
2016-08-28T19:05:14.033Z,100466
2016-08-28T19:05:30.986Z,100473
2016-08-28T19:05:45.152Z,100466
2016-08-28T19:05:56.487Z,100460
2016-08-28T19:06:13.869Z,100463
2016-08-28T19:06:24.912Z,100466
2016-08-28T19:06:39.115Z,100469
2016-08-28T19:06:53.243Z,100460
2016-08-28T19:07:10.404Z,100460
2016-08-28T19:07:27.407Z,100460
2016-08-28T19:07:38.521Z,100460
2016-08-28T19:07:49.780Z,100463
2016-08-28T19:08:01.004Z,100473
2016-08-28T19:08:12.038Z,100469
2016-08-28T19:08:25.971Z,100476
2016-08-28T19:08:40.058Z,100469
2016-08-28T19:08:59.792Z,100469
2016-08-28T19:09:13.936Z,100469
2016-08-28T19:09:30.911Z,100487
2016-08-28T19:09:47.917Z,100484
2016-08-28T19:10:02.258Z,100490
2016-08-28T19:10:16.267Z,100500
2016-08-28T19:10:33.321Z,100509
2016-08-28T19:10:44.648Z,100506
2016-08-28T19:10:55.844Z,100516
2016-08-28T19:11:09.912Z,100519
2016-08-28T19:11:24.085Z,100522
2016-08-28T19:11:35.290Z,100534
2016-08-28T19:11:52.111Z,100534
2016-08-28T19:12:13.729Z,100525
2016-08-28T19:12:33.711Z,100534
2016-08-28T19:12:45.563Z,100528
2016-08-28T19:13:03.420Z,100541
2016-08-28T19:13:17.531Z,100538
2016-08-28T19:13:28.916Z,100528
2016-08-28T19:13:43.259Z,100528
2016-08-28T19:13:54.863Z,100541
2016-08-28T19:14:06.114Z,100541
2016-08-28T19:14:17.239Z,100547
2016-08-28T19:14:34.070Z,100556
2016-08-28T19:14:50.857Z,100544
2016-08-28T19:15:02.170Z,100556
2016-08-28T19:15:19.079Z,100560
2016-08-28T19:15:30.353Z,100556
2016-08-28T19:15:44.389Z,100556
2016-08-28T19:15:58.344Z,100560
2016-08-28T19:16:12.466Z,100560
2016-08-28T19:16:26.675Z,100556
2016-08-28T19:16:40.549Z,100560
2016-08-28T19:16:54.638Z,100566
2016-08-28T19:17:05.772Z,100566
2016-08-28T19:17:25.561Z,100569
2016-08-28T19:17:39.609Z,100569
2016-08-28T19:17:53.686Z,100575
2016-08-28T19:18:04.908Z,100582
2016-08-28T19:18:18.936Z,100590
2016-08-28T19:18:30.126Z,100587
2016-08-28T19:18:44.135Z,100575
2016-08-28T19:18:58.086Z,100572
2016-08-28T19:19:12.188Z,100587
2016-08-28T19:19:26.182Z,100575
2016-08-28T19:19:40.275Z,100587
2016-08-28T19:19:54.290Z,100596
2016-08-28T19:20:08.223Z,100599
2016-08-28T19:20:22.238Z,100609
2016-08-28T19:20:33.492Z,100587
2016-08-28T19:20:44.619Z,100606
2016-08-28T19:20:58.683Z,100593
2016-08-28T19:21:12.614Z,100599
2016-08-28T19:21:29.618Z,100612
2016-08-28T19:21:43.677Z,100609
2016-08-28T19:21:57.754Z,100602
2016-08-28T19:22:08.909Z,100605
2016-08-28T19:22:22.927Z,100615
2016-08-28T19:22:36.819Z,100596
2016-08-28T19:22:50.971Z,100596
2016-08-28T19:23:05.074Z,100602
2016-08-28T19:23:16.052Z,100609
2016-08-28T19:23:30.150Z,100615
2016-08-28T19:23:44.250Z,100621
2016-08-28T19:23:55.271Z,100618
2016-08-28T19:24:09.288Z,100609
2016-08-28T19:24:23.448Z,100612
2016-08-28T19:24:40.316Z,100612
2016-08-28T19:24:51.483Z,100615
2016-08-28T19:25:08.401Z,100628
2016-08-28T19:25:22.425Z,100621
2016-08-28T19:25:33.610Z,100609
2016-08-28T19:25:44.782Z,100618
2016-08-28T19:26:01.784Z,100637
2016-08-28T19:26:13.020Z,100624
2016-08-28T19:26:30.062Z,100615
2016-08-28T19:26:46.987Z,100637
2016-08-28T19:26:58.158Z,100618
2016-08-28T19:27:12.122Z,100634
2016-08-28T19:27:23.286Z,100643
2016-08-28T19:27:34.460Z,100634
2016-08-28T19:27:45.525Z,100640
2016-08-28T19:28:02.548Z,100627
2016-08-28T19:28:16.580Z,100643
2016-08-28T19:28:27.650Z,100646
2016-08-28T19:28:38.834Z,100646
2016-08-28T19:28:49.953Z,100637
2016-08-28T19:29:03.875Z,100637
2016-08-28T19:29:15.010Z,100627
2016-08-28T19:29:26.114Z,100637
2016-08-28T19:29:37.220Z,100643
2016-08-28T19:29:48.385Z,100640
2016-08-28T19:30:05.244Z,100646
2016-08-28T19:30:22.282Z,100643
2016-08-28T19:30:39.165Z,100649
2016-08-28T19:30:54.065Z,100643
2016-08-28T19:31:08.133Z,100637
2016-08-28T19:31:24.901Z,100637
2016-08-28T19:31:36.028Z,100624
2016-08-28T19:31:50.137Z,100646
2016-08-28T19:32:01.373Z,100640
2016-08-28T19:32:12.502Z,100653
2016-08-28T19:32:23.667Z,100649
2016-08-28T19:32:37.814Z,100655
2016-08-28T19:32:51.722Z,100658
2016-08-28T19:33:02.969Z,100646
2016-08-28T19:33:17.073Z,100653
2016-08-28T19:33:28.281Z,100655
2016-08-28T19:33:39.545Z,100658
2016-08-28T19:33:53.552Z,100653
2016-08-28T19:34:07.699Z,100653
2016-08-28T19:34:18.927Z,100664
2016-08-28T19:34:32.937Z,100658
2016-08-28T19:34:46.960Z,100653
2016-08-28T19:35:06.897Z,100667
2016-08-28T19:35:18.051Z,100649
2016-08-28T19:35:31.986Z,100661
2016-08-28T19:35:43.160Z,100664
2016-08-28T19:35:54.262Z,100661
2016-08-28T19:36:05.537Z,100658
2016-08-28T19:36:16.693Z,100653
2016-08-28T19:36:30.687Z,100670
2016-08-28T19:36:44.834Z,100658
2016-08-28T19:37:04.661Z,100661
2016-08-28T19:37:15.915Z,100661
2016-08-28T19:37:32.804Z,100658
2016-08-28T19:37:46.926Z,100664
2016-08-28T19:38:00.972Z,100674
2016-08-28T19:38:15.040Z,100658
2016-08-28T19:38:26.238Z,100661
2016-08-28T19:38:37.267Z,100661
2016-08-28T19:38:51.347Z,100655
2016-08-28T19:39:05.387Z,100649
2016-08-28T19:39:16.461Z,100664
2016-08-28T19:39:30.588Z,100670
2016-08-28T19:39:44.643Z,100670
2016-08-28T19:39:58.695Z,100658
2016-08-28T19:40:12.713Z,100652
2016-08-28T19:40:26.777Z,100664
2016-08-28T19:40:40.737Z,100661
2016-08-28T19:40:51.847Z,100658
2016-08-28T19:41:05.997Z,100661
2016-08-28T19:41:20.001Z,100649
2016-08-28T19:41:36.938Z,100664
2016-08-28T19:41:48.163Z,100661
2016-08-28T19:42:02.146Z,100661
2016-08-28T19:42:13.295Z,100658
2016-08-28T19:42:27.359Z,100658